Historyczne dane pomiarowe

Dodano dane terminowe – wersja testowa.

Dane z okresu 1951-2019

Wersja bazy: 1.34 [2019-03-16, lista zmian], aktualizacja planowana na 2019-04-15

Dane meteo z obszaru Polski uzyskane na podstawie danych udostępnionych przez Instytut Meteorologii i Gospodarki Wodnej – Państwowy Instytut Badawczy.

 

Wybierz Datę:    

       

TemperaturaWilgotnośćWiatrCiśnienieOpadyŚniegCzas trwania zjawisk
 Stacja t tx tn tng RH VA  wxwx mslp ppp RRR   cm mm wxwxwxwxwxwxwx
1994-08-14 16.2 20.0 12.0- 56.0- 5.0 1.7---- 0.0------------
1994-08-13 18.1 22.7 14.1- 72.5- 6.7 2.7---- 0.2------------
1994-08-12 16.8 20.4 14.3- 87.5- 7.7 1.0---- 4.9------------
1994-08-11 18.9 24.1 15.1- 86.8- 7.0 0.7---- 3.1------------
1994-08-10 19.5 27.4 11.8- 71.0- 4.7 1.7---- 7.9------------
1994-08-09 18.7 21.5 16.2- 87.5- 7.3 0.3---- 9.4------------
1994-08-08 21.7 28.0 16.6- 80.0- 8.0 1.3---- 3.8------------
1994-08-07 23.2 30.0 16.7- 65.5- 5.3 1.0---- 1.0------------
1994-08-06 23.4 32.4 13.9- 58.5- 3.7 1.0---- 0.0------------
1994-08-05 23.0 29.9 13.7- 64.8- 0.7 1.7---- 0.0------------
1994-08-04 21.4 28.4 14.6- 70.8- 2.3 1.3---- 0.0------------
1994-08-03 22.7 29.9 16.8- 68.0- 4.7 1.7---- 6.1------------
1994-08-02 23.0 30.0 16.6- 65.8- 7.3 1.0---- 0.0------------
1994-08-01 20.9 33.1 17.6- 73.5- 6.7 3.0---- 0.0------------
1994-07-31 24.5 34.2 13.5- 54.8- 2.0 1.3---- 0.0------------
1994-07-30 24.6 33.7 12.2- 50.3- 2.0 2.0---- 0.0------------
1994-07-29 22.8 32.3 11.7- 51.5- 0.3 2.3---- 0.0------------
1994-07-28 22.2 31.9 12.4- 56.0- 2.3 1.3---- 0.0------------
1994-07-27 22.7 32.4 13.1- 59.3- 3.0 1.0---- 0.0------------
1994-07-26 22.4 31.6 12.6- 62.8- 1.3 1.7---- 0.0------------
1994-07-25 21.2 29.3 11.7- 66.5- 3.3 0.3---- 0.0------------
1994-07-24 21.1 29.1 10.8- 57.8- 2.0 2.0---- 0.0------------
1994-07-23 20.2 27.3 9.1- 58.8- 2.0 1.3---- 0.0------------
1994-07-22 19.4 27.7 8.6- 62.8- 1.3 2.3---- 0.0------------
1994-07-21 17.8 25.2 7.9- 65.0- 0.0 1.7---- 0.0------------
1994-07-20 19.2 22.7 12.1- 67.0- 2.7 1.7---- 0.0------------
1994-07-19 20.2 24.1 14.6- 81.0- 6.0 1.7---- 0.0------------
1994-07-18 20.4 26.2 15.6- 85.5- 6.0 1.0---- 0.0------------
1994-07-17 20.2 28.2 13.5- 79.0- 5.7 1.0---- 2.8------------
1994-07-16 20.5 28.5 13.8- 74.5- 3.7 2.0---- 0.7------------
1994-07-15 19.9 26.5 11.1- 78.5- 4.0 2.3---- 0.5------------
1994-07-14 22.2 27.9 12.1- 66.8- 5.3 2.7---- 0.0------------
1994-07-13 20.7 25.4 10.7- 67.8- 4.7 3.0---- 0.0------------
1994-07-12 20.5 24.9 13.3- 69.5- 2.7 1.3---- 0.0------------
1994-07-11 17.3 24.0 10.3- 78.3- 6.7 1.3---- 0.0------------
1994-07-10 14.8 20.1 12.1- 84.3- 5.7 2.3---- 5.1------------
1994-07-09 15.9 18.3 13.2- 70.5- 8.0 1.3---- 14.0------------
1994-07-08 16.8 20.2 12.2- 66.5- 3.7 3.3---- 0.0------------
1994-07-07 17.0 24.7 10.2- 78.0- 7.3 0.7---- 11.3------------
1994-07-06 20.1 25.0 11.2- 64.8- 3.3 1.7---- 0.0------------
1994-07-05 19.1 25.1 12.5- 78.0- 7.3 0.7---- 0.0------------
1994-07-04 20.2 28.5 9.3- 65.0- 1.3 1.7---- 0.0------------
1994-07-03 18.1 25.7 8.6- 69.0- 1.0 2.0---- 0.0------------
1994-07-02 19.3 24.1 8.8- 69.0- 0.0 2.0---- 0.0------------
1994-07-01 19.1 23.3 15.7- 73.0- 3.3 1.0---- 0.0------------
1994-06-30 21.9 27.0 17.4- 80.3- 5.3 3.7---- 0.0------------
1994-06-29 23.2 30.3 15.1- 78.5- 2.3 1.0---- 0.3------------
1994-06-28 22.9 28.7 18.5- 79.3- 4.3 1.0---- 0.0------------
1994-06-27 23.8 30.4 16.0- 73.0- 2.7 1.0---- 0.0------------
1994-06-26 20.5 30.0 8.1- 59.3- 1.0 1.3---- 0.0------------
1994-06-25 15.1 22.9 3.3- 61.8- 0.0 2.3---- 0.0------------
1994-06-24 14.6 20.1 6.2- 57.8- 0.3 1.3---- 0.0------------
1994-06-23 17.2 22.7 13.9- 63.5- 4.7 2.0---- 0.0------------
1994-06-22 18.8 26.5 7.6- 66.3- 4.3 1.7---- 0.0------------
1994-06-21 15.2 20.8 7.1- 67.3- 3.3 1.7---- 0.0------------
1994-06-20 16.7 24.6 8.8- 74.0- 6.7 2.7---- 0.0------------
1994-06-19 19.2 26.2 10.9- 62.5- 5.0 1.7---- 0.0------------
1994-06-18 12.5 20.0 3.0- 73.3- 5.3 2.3---- 6.5------------
1994-06-17 11.0 15.4 7.9- 78.8- 6.0 1.3---- 1.7------------
1994-06-16 13.3 16.9 4.9- 73.3- 6.0 1.7---- 2.5------------
409.7 ms

 

Źródłem pochodzenia danych jest Instytut Meteorologii i Gospodarki Wodnej – Państwowy Instytut Badawczy. Dane Instytutu Meteorologii i Gospodarki Wodnej – Państwowego Instytutu Badawczego zostały przetworzone.

Dane źródłowe można odnaleźć na stronie https://dane.imgw.pl